createdAt,value
2019-02-14T00:02:29.742Z,31.33
2019-02-14T00:04:59.827Z,28.63
2019-02-14T00:07:29.897Z,25.97
2019-02-14T00:10:01.847Z,28.40
2019-02-14T00:12:31.656Z,24.63
2019-02-14T00:15:02.950Z,30.93
2019-02-14T00:17:32.933Z,32.43
2019-02-14T00:20:02.924Z,35.30
2019-02-14T00:22:35.977Z,35.40
2019-02-14T00:25:08.479Z,30.10
2019-02-14T00:27:39.749Z,30.70
2019-02-14T00:30:12.450Z,26.30
2019-02-14T00:32:44.243Z,28.60
2019-02-14T00:35:24.544Z,30.17
2019-02-14T00:37:47.761Z,30.77
2019-02-14T00:40:23.569Z,36.77
2019-02-14T00:42:56.482Z,37.53
2019-02-14T00:45:37.604Z,25.10
2019-02-14T00:48:07.457Z,35.97
2019-02-14T00:50:38.740Z,35.33
2019-02-14T00:53:09.826Z,34.50
2019-02-14T00:55:39.983Z,28.50
2019-02-14T00:58:10.046Z,27.90
2019-02-14T01:00:43.360Z,27.87
2019-02-14T01:03:13.581Z,31.73
2019-02-14T01:05:43.576Z,31.60
2019-02-14T01:08:13.643Z,26.23
2019-02-14T01:10:45.474Z,34.80
2019-02-14T01:13:18.392Z,31.60
2019-02-14T01:15:51.333Z,28.50
2019-02-14T01:18:22.776Z,31.37
2019-02-14T01:20:54.542Z,24.57
2019-02-14T01:23:29.643Z,38.17
2019-02-14T01:26:03.053Z,32.80
2019-02-14T01:28:33.222Z,29.37
2019-02-14T01:31:03.546Z,35.37
2019-02-14T01:33:36.642Z,22.30
2019-02-14T01:36:06.817Z,30.60
2019-02-14T01:38:38.509Z,31.27
2019-02-14T01:41:08.686Z,30.60
2019-02-14T01:43:38.678Z,37.40
2019-02-14T01:46:11.543Z,30.60
2019-02-14T01:48:41.655Z,26.67
2019-02-14T01:51:16.578Z,26.13
2019-02-14T01:53:43.729Z,27.97
2019-02-14T01:56:16.590Z,20.47
2019-02-14T01:58:50.625Z,23.97
2019-02-14T02:01:21.825Z,20.07
2019-02-14T02:03:51.905Z,20.70
2019-02-14T02:06:23.695Z,24.90
2019-02-14T02:08:53.761Z,21.40
2019-02-14T02:11:23.843Z,22.07
2019-02-14T02:13:57.367Z,32.43
2019-02-14T02:16:28.349Z,22.70
2019-02-14T02:19:00.055Z,23.07
2019-02-14T02:21:30.131Z,21.63
2019-02-14T02:24:00.217Z,21.20
2019-02-14T02:26:30.293Z,22.43
2019-02-14T02:29:03.147Z,23.67
2019-02-14T02:31:33.147Z,23.90
2019-02-14T02:34:04.805Z,21.90
2019-02-14T02:36:36.596Z,26.60
2019-02-14T02:39:09.164Z,18.30
2019-02-14T02:41:40.930Z,20.40
2019-02-14T02:44:14.871Z,19.80
2019-02-14T02:46:50.994Z,24.13
2019-02-14T02:49:22.091Z,21.40
2019-02-14T02:51:53.296Z,27.33
2019-02-14T02:54:23.441Z,28.27
2019-02-14T02:56:54.733Z,24.40
2019-02-14T02:59:28.773Z,26.97
2019-02-14T03:01:58.862Z,21.77
2019-02-14T03:04:28.924Z,23.40
2019-02-14T03:07:00.489Z,24.17
2019-02-14T03:09:30.640Z,24.47
2019-02-14T03:12:01.655Z,18.27
2019-02-14T03:14:31.649Z,21.50
2019-02-14T03:17:03.281Z,28.63
2019-02-14T03:19:36.206Z,24.90
2019-02-14T03:22:06.277Z,22.17
2019-02-14T03:24:36.372Z,22.50
2019-02-14T03:27:09.372Z,17.63
2019-02-14T03:29:44.372Z,22.37
2019-02-14T03:32:10.826Z,33.23
2019-02-14T03:34:43.847Z,22.43
2019-02-14T03:37:17.042Z,21.90
2019-02-14T03:39:47.995Z,18.50
2019-02-14T03:42:19.254Z,22.73
2019-02-14T03:44:50.547Z,25.83
2019-02-14T03:47:25.753Z,24.07
2019-02-14T03:49:55.895Z,22.57
2019-02-14T03:52:25.972Z,24.87
2019-02-14T03:54:56.035Z,25.53
2019-02-14T03:57:26.196Z,23.80
2019-02-14T03:59:57.328Z,23.90
2019-02-14T04:02:29.014Z,25.63
2019-02-14T04:05:00.430Z,22.83
2019-02-14T04:07:30.544Z,20.20
2019-02-14T04:10:01.624Z,24.90
2019-02-14T04:12:31.704Z,25.10
2019-02-14T04:15:01.780Z,25.50
2019-02-14T04:17:33.574Z,25.63
2019-02-14T04:20:05.575Z,24.60
2019-02-14T04:22:35.644Z,23.70
2019-02-14T04:25:15.296Z,26.23
2019-02-14T04:27:45.377Z,27.50
2019-02-14T04:30:15.477Z,32.13
2019-02-14T04:32:46.660Z,43.60
2019-02-14T04:35:19.078Z,36.70
2019-02-14T04:37:49.240Z,35.27
2019-02-14T04:40:22.043Z,22.27
2019-02-14T04:42:53.236Z,24.10
2019-02-14T04:45:23.225Z,16.73
2019-02-14T04:47:54.545Z,20.77
2019-02-14T04:50:24.671Z,17.40
2019-02-14T04:52:54.769Z,19.93
2019-02-14T04:55:24.848Z,26.23
2019-02-14T04:57:54.835Z,19.37
2019-02-14T05:00:27.974Z,17.37
2019-02-14T05:03:02.571Z,19.77
2019-02-14T05:05:36.857Z,17.87
2019-02-14T05:08:06.990Z,15.90
2019-02-14T05:10:40.012Z,19.70
2019-02-14T05:13:10.107Z,22.00
2019-02-14T05:15:42.943Z,19.33
2019-02-14T05:18:16.806Z,26.57
2019-02-14T05:20:46.957Z,19.20
2019-02-14T05:23:17.026Z,20.40
2019-02-14T05:25:48.821Z,25.40
2019-02-14T05:28:20.483Z,25.77
2019-02-14T05:30:50.585Z,20.30
2019-02-14T05:33:20.746Z,18.53
2019-02-14T05:35:52.867Z,27.73
2019-02-14T05:38:22.933Z,19.90
2019-02-14T05:40:54.955Z,19.00
2019-02-14T05:43:24.731Z,21.43
2019-02-14T05:45:55.409Z,19.47
2019-02-14T05:48:25.573Z,31.60
2019-02-14T05:50:57.256Z,21.90
2019-02-14T05:53:27.368Z,21.90
2019-02-14T05:55:58.689Z,23.17
2019-02-14T05:58:30.398Z,22.13
2019-02-14T06:01:01.393Z,27.10
2019-02-14T06:03:31.472Z,25.07
2019-02-14T06:06:01.493Z,23.70
2019-02-14T06:08:33.189Z,22.37
2019-02-14T06:11:03.369Z,21.93
2019-02-14T06:13:33.370Z,24.37
2019-02-14T06:16:06.398Z,22.77
2019-02-14T06:18:39.112Z,31.20
2019-02-14T06:21:09.199Z,25.40
2019-02-14T06:23:39.288Z,23.23
2019-02-14T06:26:09.361Z,25.13
2019-02-14T06:28:40.628Z,24.40
2019-02-14T06:31:10.692Z,20.63
2019-02-14T06:33:41.695Z,22.03
2019-02-14T06:36:11.694Z,21.07
2019-02-14T06:38:41.694Z,23.80
2019-02-14T06:41:11.772Z,21.23
2019-02-14T06:43:43.031Z,21.17
2019-02-14T06:46:13.123Z,21.40
2019-02-14T06:48:43.216Z,20.43
2019-02-14T06:51:14.945Z,22.13
2019-02-14T06:53:45.030Z,21.50
2019-02-14T06:56:16.781Z,18.97
2019-02-14T06:58:46.859Z,21.27
2019-02-14T07:01:18.031Z,20.63
2019-02-14T07:03:47.998Z,18.33
2019-02-14T07:06:19.453Z,19.10
2019-02-14T07:08:50.833Z,20.67
2019-02-14T07:11:23.971Z,27.87
2019-02-14T07:13:53.979Z,22.33
2019-02-14T07:16:25.331Z,21.60
2019-02-14T07:18:55.482Z,22.43
2019-02-14T07:21:27.228Z,35.20
2019-02-14T07:23:57.479Z,19.13
2019-02-14T07:26:27.473Z,20.77
2019-02-14T07:29:00.839Z,17.37
2019-02-14T07:31:30.923Z,12.73
2019-02-14T07:34:05.938Z,17.93
2019-02-14T07:36:36.056Z,13.30
2019-02-14T07:39:11.131Z,24.60
2019-02-14T07:41:41.301Z,27.17
2019-02-14T07:44:11.384Z,24.33
2019-02-14T07:46:44.245Z,18.53
2019-02-14T07:49:14.290Z,18.77
2019-02-14T07:51:44.463Z,22.13
2019-02-14T07:54:15.816Z,14.20
2019-02-14T07:56:45.861Z,15.00
2019-02-14T07:59:15.960Z,13.93
2019-02-14T08:01:46.098Z,13.63
2019-02-14T08:04:16.116Z,14.50
2019-02-14T08:06:47.810Z,14.60
2019-02-14T08:09:17.989Z,18.00
2019-02-14T08:11:49.173Z,18.47
2019-02-14T08:14:19.198Z,12.70
2019-02-14T08:16:52.488Z,14.63
2019-02-14T08:19:22.580Z,13.77
2019-02-14T08:21:54.580Z,12.33
2019-02-14T08:24:25.908Z,11.63
2019-02-14T08:26:57.665Z,12.97
2019-02-14T08:29:27.748Z,13.27
2019-02-14T08:31:57.844Z,13.40
2019-02-14T08:34:27.994Z,13.60
2019-02-14T08:37:01.133Z,14.07
2019-02-14T08:39:31.158Z,11.77
2019-02-14T08:42:01.471Z,10.63
2019-02-14T08:44:34.644Z,11.50
2019-02-14T08:47:06.348Z,11.03
2019-02-14T08:49:36.458Z,11.50
2019-02-14T08:52:09.490Z,18.70
2019-02-14T08:54:42.011Z,12.73
2019-02-14T08:57:11.426Z,15.57
2019-02-14T08:59:41.634Z,13.57
2019-02-14T09:02:13.638Z,20.30
2019-02-14T09:04:46.961Z,23.50
2019-02-14T09:07:18.799Z,14.17
2019-02-14T09:09:48.952Z,9.80
2019-02-14T09:12:23.070Z,9.13
2019-02-14T09:14:53.158Z,9.83
2019-02-14T09:17:23.235Z,15.60
2019-02-14T09:19:53.316Z,9.93
2019-02-14T09:22:23.346Z,9.70
2019-02-14T09:24:53.444Z,10.23
2019-02-14T09:27:23.939Z,8.83
2019-02-14T09:29:54.043Z,12.77
2019-02-14T09:32:26.191Z,9.90
2019-02-14T09:34:56.267Z,9.90
2019-02-14T09:37:26.341Z,9.50
2019-02-14T09:39:56.365Z,9.20
2019-02-14T09:42:26.461Z,8.47
2019-02-14T09:44:56.638Z,10.60
2019-02-14T09:47:26.804Z,9.63
2019-02-14T09:49:57.004Z,17.03
2019-02-14T09:52:27.166Z,12.07
2019-02-14T09:54:57.328Z,10.30
2019-02-14T09:57:27.356Z,10.43
2019-02-14T09:59:57.743Z,10.17
2019-02-14T10:02:27.776Z,10.37
2019-02-14T10:04:57.849Z,10.33
2019-02-14T10:07:27.967Z,10.10
2019-02-14T10:09:58.154Z,10.23
2019-02-14T10:12:28.225Z,16.70
2019-02-14T10:14:58.398Z,11.13
2019-02-14T10:17:28.471Z,11.60
2019-02-14T10:19:58.564Z,12.13
2019-02-14T10:22:28.633Z,9.93
2019-02-14T10:24:58.740Z,9.37
2019-02-14T10:27:28.816Z,9.07
2019-02-14T10:29:58.910Z,8.20
2019-02-14T10:32:29.014Z,7.43
2019-02-14T10:34:59.092Z,7.40
2019-02-14T10:37:29.244Z,7.63
2019-02-14T10:39:59.416Z,8.30
2019-02-14T10:42:29.530Z,7.00
2019-02-14T10:44:59.540Z,7.57
2019-02-14T10:47:29.642Z,6.97
2019-02-14T10:49:59.800Z,6.83
2019-02-14T10:52:29.900Z,6.40
2019-02-14T10:54:59.986Z,7.33
2019-02-14T10:57:30.090Z,7.37
2019-02-14T11:00:00.342Z,8.90
2019-02-14T11:02:30.406Z,7.00
2019-02-14T11:05:00.572Z,7.27
2019-02-14T11:07:30.753Z,6.67
2019-02-14T11:10:02.219Z,7.13
2019-02-14T11:12:35.034Z,7.07
2019-02-14T11:15:09.320Z,6.70
2019-02-14T11:17:39.427Z,6.20
2019-02-14T11:20:11.379Z,8.73
2019-02-14T11:22:41.494Z,6.30
2019-02-14T11:25:28.154Z,7.20
2019-02-14T11:27:59.319Z,8.53
2019-02-14T11:30:30.807Z,7.40
2019-02-14T11:33:03.946Z,8.97
2019-02-14T11:35:33.943Z,6.93
2019-02-14T11:38:03.940Z,8.67
2019-02-14T11:40:34.021Z,6.60
2019-02-14T11:43:04.107Z,5.83
2019-02-14T11:45:34.264Z,5.47
2019-02-14T11:48:04.408Z,5.53
2019-02-14T11:50:34.512Z,4.43
2019-02-14T11:53:13.840Z,4.60
2019-02-14T11:55:39.271Z,5.80
2019-02-14T11:58:09.421Z,5.63
2019-02-14T12:00:39.489Z,4.97
2019-02-14T12:03:09.596Z,5.13
2019-02-14T12:05:39.759Z,5.00
2019-02-14T12:08:09.853Z,5.10
2019-02-14T12:10:39.901Z,5.37
2019-02-14T12:13:10.048Z,6.40
2019-02-14T12:15:40.039Z,6.30
2019-02-14T12:18:12.694Z,8.30
2019-02-14T12:20:43.841Z,7.47
2019-02-14T12:23:15.553Z,8.23
2019-02-14T12:25:51.463Z,9.80
2019-02-14T12:28:21.539Z,8.47
2019-02-14T12:30:53.047Z,8.10
2019-02-14T12:33:23.096Z,9.03
2019-02-14T12:35:54.849Z,10.70
2019-02-14T12:38:24.928Z,8.67
2019-02-14T12:40:58.095Z,9.30
2019-02-14T12:43:29.424Z,9.40
2019-02-14T12:46:02.244Z,8.67
2019-02-14T12:48:37.273Z,8.80
2019-02-14T12:51:10.278Z,8.53
2019-02-14T12:53:43.276Z,8.70
2019-02-14T12:56:16.163Z,9.83
2019-02-14T12:58:49.572Z,9.73
2019-02-14T13:01:21.993Z,9.47
2019-02-14T13:03:51.397Z,10.43
2019-02-14T13:06:23.088Z,9.50
2019-02-14T13:08:54.273Z,9.10
2019-02-14T13:11:31.273Z,9.20
2019-02-14T13:14:02.163Z,11.50
2019-02-14T13:16:38.517Z,9.00
2019-02-14T13:19:08.617Z,10.03
2019-02-14T13:21:40.730Z,10.07
2019-02-14T13:24:10.830Z,9.17
2019-02-14T13:26:40.862Z,8.53
2019-02-14T13:29:10.875Z,9.47
2019-02-14T13:31:43.128Z,7.97
2019-02-14T13:34:13.119Z,9.90
2019-02-14T13:36:43.474Z,13.97
2019-02-14T13:39:14.685Z,9.20
2019-02-14T13:41:44.833Z,8.07
2019-02-14T13:44:15.002Z,11.00
2019-02-14T13:46:45.136Z,8.67
2019-02-14T13:49:15.257Z,8.57
2019-02-14T13:51:45.363Z,14.10
2019-02-14T13:54:18.482Z,8.97
2019-02-14T13:56:54.131Z,10.10
2019-02-14T13:59:23.152Z,11.00
2019-02-14T14:01:53.230Z,10.73
2019-02-14T14:04:25.793Z,10.20
2019-02-14T14:06:55.173Z,9.33
2019-02-14T14:09:25.255Z,12.17
2019-02-14T14:11:57.451Z,8.70
2019-02-14T14:14:30.351Z,9.47
2019-02-14T14:17:02.387Z,9.97
2019-02-14T14:19:34.127Z,10.10
2019-02-14T14:22:04.221Z,9.57
2019-02-14T14:24:34.387Z,9.47
2019-02-14T14:27:05.799Z,10.40
2019-02-14T14:29:37.555Z,9.40
2019-02-14T14:32:08.755Z,8.80
2019-02-14T14:34:39.891Z,11.87
2019-02-14T14:37:09.989Z,9.97
2019-02-14T14:39:47.820Z,9.13
2019-02-14T14:42:32.958Z,9.20
2019-02-14T14:45:04.240Z,9.43
2019-02-14T14:47:37.260Z,9.33
2019-02-14T14:50:07.787Z,12.60
2019-02-14T14:52:37.873Z,12.00
2019-02-14T14:55:10.524Z,11.10
2019-02-14T14:57:40.697Z,11.70
2019-02-14T15:00:25.551Z,11.30
2019-02-14T15:02:43.160Z,11.30
2019-02-14T15:05:13.327Z,13.17
2019-02-14T15:07:43.429Z,11.23
2019-02-14T15:10:13.673Z,11.30
2019-02-14T15:12:43.835Z,10.53
2019-02-14T15:15:14.002Z,10.50
2019-02-14T15:17:44.084Z,9.80
2019-02-14T15:20:15.752Z,10.37
2019-02-14T15:22:45.884Z,9.90
2019-02-14T15:25:16.586Z,12.10
2019-02-14T15:27:46.735Z,12.47
2019-02-14T15:30:18.011Z,9.87
2019-02-14T15:32:48.113Z,11.03
2019-02-14T15:35:18.284Z,12.77
2019-02-14T15:37:48.380Z,14.83
2019-02-14T15:40:19.175Z,12.47
2019-02-14T15:42:49.353Z,16.30
2019-02-14T15:45:22.367Z,17.30
2019-02-14T15:47:52.486Z,11.30
2019-02-14T15:50:22.590Z,13.47
2019-02-14T15:52:54.673Z,16.97
2019-02-14T15:55:26.809Z,11.87
2019-02-14T15:57:56.946Z,10.47
2019-02-14T16:00:27.102Z,10.57
2019-02-14T16:02:57.351Z,10.50
2019-02-14T16:05:27.564Z,9.40
2019-02-14T16:07:57.674Z,9.03
2019-02-14T16:10:29.604Z,8.67
2019-02-14T16:12:59.605Z,14.60
2019-02-14T16:15:31.061Z,15.47
2019-02-14T16:18:01.732Z,11.23
2019-02-14T16:20:31.969Z,9.50
2019-02-14T16:23:04.146Z,10.50
2019-02-14T16:25:33.808Z,9.87
2019-02-14T16:28:03.999Z,18.07
2019-02-14T16:30:34.114Z,23.63
2019-02-14T16:33:04.385Z,24.23
2019-02-14T16:35:34.456Z,16.50
2019-02-14T16:38:04.602Z,13.93
2019-02-14T16:40:38.612Z,11.40
2019-02-14T16:43:06.588Z,10.83
2019-02-14T16:45:36.804Z,10.53
2019-02-14T16:48:08.043Z,10.37
2019-02-14T16:50:38.211Z,15.33
2019-02-14T16:53:08.416Z,15.63
2019-02-14T16:55:38.701Z,14.40
2019-02-14T16:58:08.914Z,11.90
2019-02-14T17:00:39.090Z,15.50
2019-02-14T17:03:11.724Z,10.70
2019-02-14T17:05:41.824Z,11.05
2019-02-14T17:08:13.569Z,10.10
2019-02-14T17:10:45.004Z,12.67
2019-02-14T17:13:16.765Z,13.03
2019-02-14T17:15:48.861Z,15.60
2019-02-14T17:18:20.815Z,18.97
2019-02-14T17:20:51.015Z,13.80
2019-02-14T17:23:25.547Z,10.63
2019-02-14T17:25:59.811Z,15.70
2019-02-14T17:28:31.065Z,11.40
2019-02-14T17:31:02.647Z,12.17
2019-02-14T17:33:34.211Z,11.43
2019-02-14T17:36:04.693Z,11.20
2019-02-14T17:38:34.962Z,12.97
2019-02-14T17:41:05.169Z,11.70
2019-02-14T17:43:35.365Z,11.63
2019-02-14T17:46:05.593Z,25.70
2019-02-14T17:48:35.913Z,26.23
2019-02-14T17:51:06.075Z,22.03
2019-02-14T17:53:36.351Z,23.27
2019-02-14T17:56:06.851Z,15.90
2019-02-14T17:58:37.104Z,16.00
2019-02-14T18:01:07.252Z,15.33
2019-02-14T18:03:37.632Z,13.70
2019-02-14T18:09:08.101Z,13.17
2019-02-14T18:11:41.228Z,13.53
2019-02-14T18:14:11.465Z,14.40
2019-02-14T18:16:42.554Z,18.70
2019-02-14T18:19:14.579Z,14.93
2019-02-14T18:21:46.064Z,19.60
2019-02-14T18:24:20.232Z,21.03
2019-02-14T18:26:51.642Z,47.13
2019-02-14T18:29:24.096Z,35.70
2019-02-14T18:31:56.054Z,40.23
2019-02-14T18:34:36.492Z,20.30
2019-02-14T18:37:08.133Z,21.47
2019-02-14T18:39:39.535Z,15.70
2019-02-14T18:42:14.094Z,24.43
2019-02-14T18:44:48.474Z,24.30
2019-02-14T18:47:23.123Z,28.23
2019-02-14T18:49:58.121Z,20.90
2019-02-14T18:52:28.823Z,25.00
2019-02-14T18:55:01.713Z,22.43
2019-02-14T18:57:32.325Z,19.23
2019-02-14T19:00:13.581Z,23.83
2019-02-14T19:02:44.287Z,26.27
2019-02-14T19:05:17.729Z,23.60
2019-02-14T19:07:49.306Z,25.50
2019-02-14T19:10:19.741Z,24.90
2019-02-14T19:12:54.166Z,28.30
2019-02-14T19:15:26.144Z,21.13
2019-02-14T19:17:59.143Z,20.40
2019-02-14T19:20:32.576Z,18.60
2019-02-14T19:23:02.906Z,19.20
2019-02-14T19:25:33.362Z,18.67
2019-02-14T19:28:03.911Z,16.30
2019-02-14T19:30:40.540Z,15.83
2019-02-14T19:33:15.926Z,20.00
2019-02-14T19:35:48.225Z,18.13
2019-02-14T19:38:21.906Z,15.53
2019-02-14T19:40:54.435Z,17.13
2019-02-14T19:43:25.129Z,21.80
2019-02-14T19:45:55.675Z,20.63
2019-02-14T19:48:26.714Z,28.10
2019-02-14T19:50:58.974Z,27.23
2019-02-14T19:53:34.257Z,40.30
2019-02-14T19:56:23.756Z,24.00
2019-02-14T19:58:56.952Z,25.53
2019-02-14T20:01:30.890Z,24.53
2019-02-14T20:04:03.535Z,31.53
2019-02-14T20:06:35.799Z,30.37
2019-02-14T20:09:07.076Z,27.27
2019-02-14T20:11:41.291Z,30.37
2019-02-14T20:14:16.211Z,32.37
2019-02-14T20:16:51.695Z,31.03
2019-02-14T20:19:25.744Z,32.70
2019-02-14T20:21:57.208Z,32.13
2019-02-14T20:24:29.451Z,26.97
2019-02-14T20:27:07.968Z,34.80
2019-02-14T20:29:39.099Z,29.83
2019-02-14T20:32:09.413Z,32.33
2019-02-14T20:34:44.403Z,35.83
2019-02-14T20:37:21.939Z,39.50
2019-02-14T20:39:52.568Z,44.20
2019-02-14T20:42:26.554Z,44.70
2019-02-14T20:44:57.359Z,48.03
2019-02-14T20:47:29.683Z,47.37
2019-02-14T20:50:04.602Z,38.37
2019-02-14T20:52:38.743Z,35.30
2019-02-14T20:55:11.156Z,32.67
2019-02-14T20:57:45.573Z,31.47
2019-02-14T21:00:26.170Z,33.97
2019-02-14T21:02:56.412Z,38.20
2019-02-14T21:05:31.304Z,42.70
2019-02-14T21:08:03.787Z,36.87
2019-02-14T21:10:37.819Z,32.50
2019-02-14T21:13:08.386Z,30.90
2019-02-14T21:15:39.780Z,30.50
2019-02-14T21:18:12.508Z,34.43
2019-02-14T21:20:48.471Z,34.67
2019-02-14T21:23:19.791Z,36.67
2019-02-14T21:25:49.961Z,35.13
2019-02-14T21:28:22.013Z,32.20
2019-02-14T21:30:52.198Z,31.73
2019-02-14T21:33:22.450Z,39.20
2019-02-14T21:35:54.456Z,28.67
2019-02-14T21:38:25.022Z,32.87
2019-02-14T21:41:01.090Z,35.13
2019-02-14T21:43:37.696Z,36.20
2019-02-14T21:46:08.292Z,32.40
2019-02-14T21:48:41.564Z,35.53
2019-02-14T21:51:15.553Z,34.30
2019-02-14T21:53:45.862Z,30.33
2019-02-14T21:56:16.179Z,31.40
2019-02-14T21:58:46.778Z,33.60
2019-02-14T22:01:17.676Z,35.30
2019-02-14T22:03:53.686Z,35.17
2019-02-14T22:06:28.478Z,33.47
2019-02-14T22:08:58.677Z,37.87
2019-02-14T22:11:33.860Z,39.17
2019-02-14T22:14:01.816Z,35.73
2019-02-14T22:16:32.027Z,34.20
2019-02-14T22:19:02.091Z,40.47
2019-02-14T22:21:32.288Z,33.37
2019-02-14T22:24:02.399Z,34.90
2019-02-14T22:26:33.717Z,32.60
2019-02-14T22:29:03.976Z,30.30
2019-02-14T22:31:35.253Z,34.00
2019-02-14T22:34:05.433Z,25.47
2019-02-14T22:36:35.541Z,32.27
2019-02-14T22:39:06.773Z,28.77
2019-02-14T22:41:36.847Z,38.77
2019-02-14T22:44:06.967Z,28.10
2019-02-14T22:46:37.076Z,31.90
2019-02-14T22:49:07.180Z,36.17
2019-02-14T22:51:37.266Z,30.40
2019-02-14T22:54:07.416Z,35.20
2019-02-14T22:56:37.508Z,29.37
2019-02-14T22:59:07.537Z,28.80
2019-02-14T23:01:39.404Z,30.33
2019-02-14T23:04:09.473Z,37.60
2019-02-14T23:06:39.564Z,27.40
2019-02-14T23:09:10.136Z,33.37
2019-02-14T23:11:40.243Z,27.13
2019-02-14T23:14:10.245Z,30.13
2019-02-14T23:16:40.372Z,26.27
2019-02-14T23:19:13.244Z,27.37
2019-02-14T23:21:43.362Z,25.53
2019-02-14T23:24:22.742Z,26.57
2019-02-14T23:26:48.007Z,31.73
2019-02-14T23:29:22.295Z,27.37
2019-02-14T23:31:52.469Z,25.70
2019-02-14T23:34:26.698Z,28.13
2019-02-14T23:36:58.364Z,26.80
2019-02-14T23:39:28.459Z,23.80
2019-02-14T23:41:58.466Z,29.40
2019-02-14T23:44:28.541Z,26.27
2019-02-14T23:47:10.741Z,31.67
2019-02-14T23:49:31.637Z,22.60
2019-02-14T23:52:01.731Z,28.73
2019-02-14T23:54:32.177Z,22.87
2019-02-14T23:57:02.277Z,21.57
2019-02-14T23:59:34.304Z,26.10
